sensor_id;sensor_type;location;lat;lon;timestamp;temperature;humidity
2639;DHT22;1329;51.384;7.122;2023-03-01T00:01:29;0.50;98.10
2639;DHT22;1329;51.384;7.122;2023-03-01T00:03:58;0.50;97.30
2639;DHT22;1329;51.384;7.122;2023-03-01T00:06:26;0.50;97.60
2639;DHT22;1329;51.384;7.122;2023-03-01T00:08:56;0.40;97.30
2639;DHT22;1329;51.384;7.122;2023-03-01T00:11:25;0.40;96.80
2639;DHT22;1329;51.384;7.122;2023-03-01T00:13:55;0.40;97.20
2639;DHT22;1329;51.384;7.122;2023-03-01T00:16:26;0.40;97.20
2639;DHT22;1329;51.384;7.122;2023-03-01T00:18:58;0.30;96.90
2639;DHT22;1329;51.384;7.122;2023-03-01T00:21:27;0.30;96.40
2639;DHT22;1329;51.384;7.122;2023-03-01T00:23:56;0.30;97.90
2639;DHT22;1329;51.384;7.122;2023-03-01T00:26:26;0.30;97.20
2639;DHT22;1329;51.384;7.122;2023-03-01T00:28:56;0.20;98.00
2639;DHT22;1329;51.384;7.122;2023-03-01T00:31:29;0.20;97.70
2639;DHT22;1329;51.384;7.122;2023-03-01T00:34:03;0.20;97.40
2639;DHT22;1329;51.384;7.122;2023-03-01T00:36:33;0.20;97.20
2639;DHT22;1329;51.384;7.122;2023-03-01T00:39:04;0.20;97.10
2639;DHT22;1329;51.384;7.122;2023-03-01T00:41:34;0.10;96.70
2639;DHT22;1329;51.384;7.122;2023-03-01T00:44:01;0.10;97.60
2639;DHT22;1329;51.384;7.122;2023-03-01T00:46:30;0.10;97.40
2639;DHT22;1329;51.384;7.122;2023-03-01T00:48:58;0.10;97.60
2639;DHT22;1329;51.384;7.122;2023-03-01T00:51:30;0.10;97.60
2639;DHT22;1329;51.384;7.122;2023-03-01T00:54:03;0.10;97.60
2639;DHT22;1329;51.384;7.122;2023-03-01T00:56:30;0.00;96.90
2639;DHT22;1329;51.384;7.122;2023-03-01T00:58:57;0.00;97.60
2639;DHT22;1329;51.384;7.122;2023-03-01T01:01:27;0.00;97.70
2639;DHT22;1329;51.384;7.122;2023-03-01T01:03:58;0.00;97.20
2639;DHT22;1329;51.384;7.122;2023-03-01T01:06:28;0.00;96.90
2639;DHT22;1329;51.384;7.122;2023-03-01T01:08:57;-0.10;96.80
2639;DHT22;1329;51.384;7.122;2023-03-01T01:11:28;-0.10;97.20
2639;DHT22;1329;51.384;7.122;2023-03-01T01:13:58;-0.10;96.10
2639;DHT22;1329;51.384;7.122;2023-03-01T01:16:27;-0.10;96.50
2639;DHT22;1329;51.384;7.122;2023-03-01T01:19:02;-0.20;96.50
2639;DHT22;1329;51.384;7.122;2023-03-01T01:21:31;-0.20;96.20
2639;DHT22;1329;51.384;7.122;2023-03-01T01:23:59;-0.20;96.90
2639;DHT22;1329;51.384;7.122;2023-03-01T01:26:29;-0.20;96.80
2639;DHT22;1329;51.384;7.122;2023-03-01T01:28:58;-0.20;96.20
2639;DHT22;1329;51.384;7.122;2023-03-01T01:31:27;-0.30;96.90
2639;DHT22;1329;51.384;7.122;2023-03-01T01:33:56;-0.30;96.80
2639;DHT22;1329;51.384;7.122;2023-03-01T01:36:24;-0.30;97.00
2639;DHT22;1329;51.384;7.122;2023-03-01T01:38:52;-0.30;96.90
2639;DHT22;1329;51.384;7.122;2023-03-01T01:41:20;-0.30;97.00
2639;DHT22;1329;51.384;7.122;2023-03-01T01:46:39;-0.40;96.30
2639;DHT22;1329;51.384;7.122;2023-03-01T01:49:19;-0.40;96.50
2639;DHT22;1329;51.384;7.122;2023-03-01T01:51:57;-0.40;95.60
2639;DHT22;1329;51.384;7.122;2023-03-01T01:54:30;-0.40;95.90
2639;DHT22;1329;51.384;7.122;2023-03-01T01:57:05;-0.40;98.10
2639;DHT22;1329;51.384;7.122;2023-03-01T01:59:37;-0.40;99.90
2639;DHT22;1329;51.384;7.122;2023-03-01T02:02:06;-0.40;99.90
2639;DHT22;1329;51.384;7.122;2023-03-01T02:04:35;-0.40;99.90
2639;DHT22;1329;51.384;7.122;2023-03-01T02:07:07;-0.30;99.90
2639;DHT22;1329;51.384;7.122;2023-03-01T02:09:39;-0.30;99.90
2639;DHT22;1329;51.384;7.122;2023-03-01T02:12:09;-0.30;99.90
2639;DHT22;1329;51.384;7.122;2023-03-01T02:14:40;-0.30;99.90
2639;DHT22;1329;51.384;7.122;2023-03-01T02:17:11;-0.30;99.90
2639;DHT22;1329;51.384;7.122;2023-03-01T02:19:52;-0.30;99.90
2639;DHT22;1329;51.384;7.122;2023-03-01T02:22:30;-0.40;99.90
2639;DHT22;1329;51.384;7.122;2023-03-01T02:25:12;-0.40;99.90
2639;DHT22;1329;51.384;7.122;2023-03-01T02:28:10;-0.40;98.30
2639;DHT22;1329;51.384;7.122;2023-03-01T02:30:49;-0.50;96.20
2639;DHT22;1329;51.384;7.122;2023-03-01T02:33:36;-0.50;98.30
2639;DHT22;1329;51.384;7.122;2023-03-01T02:36:09;-0.50;97.40
2639;DHT22;1329;51.384;7.122;2023-03-01T02:38:39;-0.60;96.70
2639;DHT22;1329;51.384;7.122;2023-03-01T02:41:12;-0.60;96.80
2639;DHT22;1329;51.384;7.122;2023-03-01T02:43:44;-0.70;96.50
2639;DHT22;1329;51.384;7.122;2023-03-01T02:46:15;-0.70;96.10
2639;DHT22;1329;51.384;7.122;2023-03-01T02:48:45;-0.70;95.20
2639;DHT22;1329;51.384;7.122;2023-03-01T02:51:24;-0.70;95.50
2639;DHT22;1329;51.384;7.122;2023-03-01T02:54:08;-0.80;93.80
2639;DHT22;1329;51.384;7.122;2023-03-01T02:56:41;-0.80;93.50
2639;DHT22;1329;51.384;7.122;2023-03-01T02:59:10;-0.80;95.30
2639;DHT22;1329;51.384;7.122;2023-03-01T03:01:38;-0.90;94.80
2639;DHT22;1329;51.384;7.122;2023-03-01T03:04:10;-0.90;95.20
2639;DHT22;1329;51.384;7.122;2023-03-01T03:06:43;-0.90;95.00
2639;DHT22;1329;51.384;7.122;2023-03-01T03:09:10;-0.90;94.90
2639;DHT22;1329;51.384;7.122;2023-03-01T03:11:38;-0.90;95.10
2639;DHT22;1329;51.384;7.122;2023-03-01T03:14:06;-0.90;95.00
2639;DHT22;1329;51.384;7.122;2023-03-01T03:16:42;-1.00;94.90
2639;DHT22;1329;51.384;7.122;2023-03-01T03:19:10;-1.00;93.60
2639;DHT22;1329;51.384;7.122;2023-03-01T03:21:38;-1.00;94.20
2639;DHT22;1329;51.384;7.122;2023-03-01T03:24:06;-1.00;94.10
2639;DHT22;1329;51.384;7.122;2023-03-01T03:26:34;-1.00;93.90
2639;DHT22;1329;51.384;7.122;2023-03-01T03:29:02;-1.10;93.90
2639;DHT22;1329;51.384;7.122;2023-03-01T03:31:29;-1.10;93.90
2639;DHT22;1329;51.384;7.122;2023-03-01T03:33:58;-1.10;93.80
2639;DHT22;1329;51.384;7.122;2023-03-01T03:36:25;-1.10;93.00
2639;DHT22;1329;51.384;7.122;2023-03-01T03:38:53;-1.10;93.20
2639;DHT22;1329;51.384;7.122;2023-03-01T03:41:20;-1.10;93.00
2639;DHT22;1329;51.384;7.122;2023-03-01T03:43:47;-1.20;92.90
2639;DHT22;1329;51.384;7.122;2023-03-01T03:46:14;-1.10;92.90
2639;DHT22;1329;51.384;7.122;2023-03-01T03:48:44;-1.20;92.80
2639;DHT22;1329;51.384;7.122;2023-03-01T03:51:16;-1.20;92.40
2639;DHT22;1329;51.384;7.122;2023-03-01T03:53:45;-1.20;91.80
2639;DHT22;1329;51.384;7.122;2023-03-01T03:56:12;-1.20;92.30
2639;DHT22;1329;51.384;7.122;2023-03-01T03:58:42;-1.20;92.20
2639;DHT22;1329;51.384;7.122;2023-03-01T04:01:09;-1.20;92.30
2639;DHT22;1329;51.384;7.122;2023-03-01T04:03:42;-1.30;92.00
2639;DHT22;1329;51.384;7.122;2023-03-01T04:06:13;-1.30;91.80
2639;DHT22;1329;51.384;7.122;2023-03-01T04:08:44;-1.30;90.90
2639;DHT22;1329;51.384;7.122;2023-03-01T04:11:11;-1.30;90.40
2639;DHT22;1329;51.384;7.122;2023-03-01T04:13:55;-1.30;91.40
2639;DHT22;1329;51.384;7.122;2023-03-01T04:16:23;-1.30;90.30
2639;DHT22;1329;51.384;7.122;2023-03-01T04:18:52;-1.30;90.40
2639;DHT22;1329;51.384;7.122;2023-03-01T04:21:25;-1.40;90.70
2639;DHT22;1329;51.384;7.122;2023-03-01T04:23:52;-1.40;88.60
2639;DHT22;1329;51.384;7.122;2023-03-01T04:26:20;-1.40;89.30
2639;DHT22;1329;51.384;7.122;2023-03-01T04:28:47;-1.40;89.30
2639;DHT22;1329;51.384;7.122;2023-03-01T04:31:17;-1.40;89.00
2639;DHT22;1329;51.384;7.122;2023-03-01T04:33:48;-1.50;88.10
2639;DHT22;1329;51.384;7.122;2023-03-01T04:36:18;-1.40;88.30
2639;DHT22;1329;51.384;7.122;2023-03-01T04:38:49;-1.50;87.90
2639;DHT22;1329;51.384;7.122;2023-03-01T04:41:19;-1.50;86.90
2639;DHT22;1329;51.384;7.122;2023-03-01T04:43:48;-1.50;87.20
2639;DHT22;1329;51.384;7.122;2023-03-01T04:46:18;-1.50;88.20
2639;DHT22;1329;51.384;7.122;2023-03-01T04:48:46;-1.50;86.80
2639;DHT22;1329;51.384;7.122;2023-03-01T04:51:17;-1.60;87.70
2639;DHT22;1329;51.384;7.122;2023-03-01T04:53:45;-1.60;85.80
2639;DHT22;1329;51.384;7.122;2023-03-01T04:56:15;-1.60;88.00
2639;DHT22;1329;51.384;7.122;2023-03-01T04:58:44;-1.60;86.40
2639;DHT22;1329;51.384;7.122;2023-03-01T05:01:15;-1.60;86.30
2639;DHT22;1329;51.384;7.122;2023-03-01T05:03:50;-1.60;86.70
2639;DHT22;1329;51.384;7.122;2023-03-01T05:06:19;-1.70;86.80
2639;DHT22;1329;51.384;7.122;2023-03-01T05:08:48;-1.70;87.30
2639;DHT22;1329;51.384;7.122;2023-03-01T05:11:17;-1.70;88.00
2639;DHT22;1329;51.384;7.122;2023-03-01T05:13:44;-1.70;87.10
2639;DHT22;1329;51.384;7.122;2023-03-01T05:16:13;-1.70;88.30
2639;DHT22;1329;51.384;7.122;2023-03-01T05:18:40;-1.70;87.80
2639;DHT22;1329;51.384;7.122;2023-03-01T05:21:10;-1.70;87.00
2639;DHT22;1329;51.384;7.122;2023-03-01T05:23:41;-1.70;86.20
2639;DHT22;1329;51.384;7.122;2023-03-01T05:26:10;-1.70;86.60
2639;DHT22;1329;51.384;7.122;2023-03-01T05:28:40;-1.70;86.70
2639;DHT22;1329;51.384;7.122;2023-03-01T05:31:09;-1.80;84.70
2639;DHT22;1329;51.384;7.122;2023-03-01T05:33:36;-1.70;85.20
2639;DHT22;1329;51.384;7.122;2023-03-01T05:36:04;-1.70;85.10
2639;DHT22;1329;51.384;7.122;2023-03-01T05:38:32;-1.80;84.80
2639;DHT22;1329;51.384;7.122;2023-03-01T05:41:02;-1.80;85.00
2639;DHT22;1329;51.384;7.122;2023-03-01T05:43:45;-1.80;85.60
2639;DHT22;1329;51.384;7.122;2023-03-01T05:46:13;-1.80;83.40
2639;DHT22;1329;51.384;7.122;2023-03-01T05:48:40;-1.80;87.30
2639;DHT22;1329;51.384;7.122;2023-03-01T05:51:08;-1.80;88.70
2639;DHT22;1329;51.384;7.122;2023-03-01T05:53:35;-1.80;89.80
2639;DHT22;1329;51.384;7.122;2023-03-01T05:56:03;-1.80;90.80
2639;DHT22;1329;51.384;7.122;2023-03-01T05:58:31;-1.70;91.80
2639;DHT22;1329;51.384;7.122;2023-03-01T06:01:01;-1.70;92.70
2639;DHT22;1329;51.384;7.122;2023-03-01T06:03:28;-1.60;93.10
2639;DHT22;1329;51.384;7.122;2023-03-01T06:05:56;-1.70;94.00
2639;DHT22;1329;51.384;7.122;2023-03-01T06:08:24;-1.60;94.70
2639;DHT22;1329;51.384;7.122;2023-03-01T06:10:52;-1.60;95.20
2639;DHT22;1329;51.384;7.122;2023-03-01T06:13:38;-1.60;95.50
2639;DHT22;1329;51.384;7.122;2023-03-01T06:16:10;-1.50;94.10
2639;DHT22;1329;51.384;7.122;2023-03-01T06:18:40;-1.50;95.60
2639;DHT22;1329;51.384;7.122;2023-03-01T06:21:09;-1.40;96.00
2639;DHT22;1329;51.384;7.122;2023-03-01T06:23:37;-1.40;96.60
2639;DHT22;1329;51.384;7.122;2023-03-01T06:26:07;-1.40;97.00
2639;DHT22;1329;51.384;7.122;2023-03-01T06:28:35;-1.40;97.10
2639;DHT22;1329;51.384;7.122;2023-03-01T06:31:03;-1.30;97.50
2639;DHT22;1329;51.384;7.122;2023-03-01T06:33:35;-1.30;98.20
2639;DHT22;1329;51.384;7.122;2023-03-01T06:36:03;-1.30;98.30
2639;DHT22;1329;51.384;7.122;2023-03-01T06:38:41;-1.20;98.70
2639;DHT22;1329;51.384;7.122;2023-03-01T06:41:09;-1.20;98.90
2639;DHT22;1329;51.384;7.122;2023-03-01T06:43:40;-1.10;99.30
2639;DHT22;1329;51.384;7.122;2023-03-01T06:46:18;-1.10;98.60
2639;DHT22;1329;51.384;7.122;2023-03-01T06:48:48;-1.10;98.60
2639;DHT22;1329;51.384;7.122;2023-03-01T06:51:15;-1.10;99.10
2639;DHT22;1329;51.384;7.122;2023-03-01T06:53:50;-1.00;99.60
2639;DHT22;1329;51.384;7.122;2023-03-01T06:56:18;-1.00;98.70
2639;DHT22;1329;51.384;7.122;2023-03-01T06:58:45;-1.00;99.70
2639;DHT22;1329;51.384;7.122;2023-03-01T07:01:12;-1.00;99.90
2639;DHT22;1329;51.384;7.122;2023-03-01T07:03:39;-0.90;99.90
2639;DHT22;1329;51.384;7.122;2023-03-01T07:06:11;-0.90;99.90
2639;DHT22;1329;51.384;7.122;2023-03-01T07:08:39;-0.90;99.90
2639;DHT22;1329;51.384;7.122;2023-03-01T07:11:06;-0.90;99.90
2639;DHT22;1329;51.384;7.122;2023-03-01T07:13:36;-0.90;99.90
2639;DHT22;1329;51.384;7.122;2023-03-01T07:16:07;-0.90;99.90
2639;DHT22;1329;51.384;7.122;2023-03-01T07:18:34;-0.90;99.90
2639;DHT22;1329;51.384;7.122;2023-03-01T07:21:08;-0.80;99.90
2639;DHT22;1329;51.384;7.122;2023-03-01T07:23:36;-0.80;99.90
2639;DHT22;1329;51.384;7.122;2023-03-01T07:26:03;-0.80;99.90
2639;DHT22;1329;51.384;7.122;2023-03-01T07:28:31;-0.80;99.90
2639;DHT22;1329;51.384;7.122;2023-03-01T07:31:05;-0.70;99.90
2639;DHT22;1329;51.384;7.122;2023-03-01T07:33:32;-0.70;99.90
2639;DHT22;1329;51.384;7.122;2023-03-01T07:36:02;-0.70;99.90
2639;DHT22;1329;51.384;7.122;2023-03-01T07:38:36;-0.60;99.90
2639;DHT22;1329;51.384;7.122;2023-03-01T07:41:09;-0.60;99.90
2639;DHT22;1329;51.384;7.122;2023-03-01T07:43:36;-0.60;99.90
2639;DHT22;1329;51.384;7.122;2023-03-01T07:46:04;-0.50;99.90
2639;DHT22;1329;51.384;7.122;2023-03-01T07:48:37;-0.60;99.90
2639;DHT22;1329;51.384;7.122;2023-03-01T07:51:10;-0.50;99.90
2639;DHT22;1329;51.384;7.122;2023-03-01T07:53:39;-0.50;99.90
2639;DHT22;1329;51.384;7.122;2023-03-01T07:56:08;-0.50;99.90
2639;DHT22;1329;51.384;7.122;2023-03-01T07:58:46;-0.40;99.90
2639;DHT22;1329;51.384;7.122;2023-03-01T08:01:18;-0.40;99.90
2639;DHT22;1329;51.384;7.122;2023-03-01T08:03:48;-0.40;99.90
2639;DHT22;1329;51.384;7.122;2023-03-01T08:06:18;-0.30;99.90
2639;DHT22;1329;51.384;7.122;2023-03-01T08:08:46;-0.30;99.90
2639;DHT22;1329;51.384;7.122;2023-03-01T08:11:15;-0.30;99.90
2639;DHT22;1329;51.384;7.122;2023-03-01T08:13:43;-0.20;99.90
2639;DHT22;1329;51.384;7.122;2023-03-01T08:16:12;-0.20;99.90
2639;DHT22;1329;51.384;7.122;2023-03-01T08:18:42;-0.10;99.90
2639;DHT22;1329;51.384;7.122;2023-03-01T08:21:16;0.00;99.90
2639;DHT22;1329;51.384;7.122;2023-03-01T08:23:47;-0.10;99.90
2639;DHT22;1329;51.384;7.122;2023-03-01T08:26:19;0.00;99.90
2639;DHT22;1329;51.384;7.122;2023-03-01T08:28:50;0.00;99.90
2639;DHT22;1329;51.384;7.122;2023-03-01T08:31:21;0.10;99.90
2639;DHT22;1329;51.384;7.122;2023-03-01T08:33:52;0.10;99.90
2639;DHT22;1329;51.384;7.122;2023-03-01T08:36:24;0.20;99.90
2639;DHT22;1329;51.384;7.122;2023-03-01T08:38:53;0.20;99.90
2639;DHT22;1329;51.384;7.122;2023-03-01T08:41:23;0.20;99.90
2639;DHT22;1329;51.384;7.122;2023-03-01T08:43:53;0.30;99.90
2639;DHT22;1329;51.384;7.122;2023-03-01T08:46:24;0.40;99.90
2639;DHT22;1329;51.384;7.122;2023-03-01T08:48:52;0.40;99.90
2639;DHT22;1329;51.384;7.122;2023-03-01T08:51:21;0.50;99.90
2639;DHT22;1329;51.384;7.122;2023-03-01T08:53:56;0.50;99.90
2639;DHT22;1329;51.384;7.122;2023-03-01T08:56:24;0.60;99.90
2639;DHT22;1329;51.384;7.122;2023-03-01T08:58:53;0.60;99.90
2639;DHT22;1329;51.384;7.122;2023-03-01T09:01:21;0.80;99.90
2639;DHT22;1329;51.384;7.122;2023-03-01T09:03:49;0.80;99.90
2639;DHT22;1329;51.384;7.122;2023-03-01T09:06:18;0.80;99.90
2639;DHT22;1329;51.384;7.122;2023-03-01T09:08:48;0.90;99.90
2639;DHT22;1329;51.384;7.122;2023-03-01T09:11:22;0.90;99.90
2639;DHT22;1329;51.384;7.122;2023-03-01T09:13:53;1.00;99.90
2639;DHT22;1329;51.384;7.122;2023-03-01T09:16:23;1.10;99.90
2639;DHT22;1329;51.384;7.122;2023-03-01T09:18:54;1.10;99.90
2639;DHT22;1329;51.384;7.122;2023-03-01T09:21:23;1.20;99.90
2639;DHT22;1329;51.384;7.122;2023-03-01T09:23:56;1.30;99.90
2639;DHT22;1329;51.384;7.122;2023-03-01T09:26:33;1.30;99.90
2639;DHT22;1329;51.384;7.122;2023-03-01T09:29:00;1.50;99.90
2639;DHT22;1329;51.384;7.122;2023-03-01T09:31:28;1.50;99.90
2639;DHT22;1329;51.384;7.122;2023-03-01T09:34:05;1.60;99.90
2639;DHT22;1329;51.384;7.122;2023-03-01T09:36:38;1.60;99.90
2639;DHT22;1329;51.384;7.122;2023-03-01T09:39:14;1.70;99.90
2639;DHT22;1329;51.384;7.122;2023-03-01T09:41:52;1.80;99.90
2639;DHT22;1329;51.384;7.122;2023-03-01T09:44:31;1.90;99.90
2639;DHT22;1329;51.384;7.122;2023-03-01T09:47:03;2.00;99.90
2639;DHT22;1329;51.384;7.122;2023-03-01T09:49:44;2.00;99.90
2639;DHT22;1329;51.384;7.122;2023-03-01T09:52:26;2.10;99.90
2639;DHT22;1329;51.384;7.122;2023-03-01T09:54:58;2.20;99.90
2639;DHT22;1329;51.384;7.122;2023-03-01T09:57:31;2.30;99.90
2639;DHT22;1329;51.384;7.122;2023-03-01T10:00:28;2.30;99.90
2639;DHT22;1329;51.384;7.122;2023-03-01T10:03:11;2.40;99.90
2639;DHT22;1329;51.384;7.122;2023-03-01T10:05:47;2.50;99.90
2639;DHT22;1329;51.384;7.122;2023-03-01T10:08:29;2.60;99.90
2639;DHT22;1329;51.384;7.122;2023-03-01T10:11:03;2.70;99.90
2639;DHT22;1329;51.384;7.122;2023-03-01T10:13:45;2.80;99.90
2639;DHT22;1329;51.384;7.122;2023-03-01T10:16:32;2.90;99.90
2639;DHT22;1329;51.384;7.122;2023-03-01T10:19:14;3.00;99.90
2639;DHT22;1329;51.384;7.122;2023-03-01T10:21:45;3.10;99.90
2639;DHT22;1329;51.384;7.122;2023-03-01T10:24:19;3.20;99.90
2639;DHT22;1329;51.384;7.122;2023-03-01T10:27:00;3.30;99.90
2639;DHT22;1329;51.384;7.122;2023-03-01T10:29:47;3.40;99.90
2639;DHT22;1329;51.384;7.122;2023-03-01T10:32:19;3.50;99.90
2639;DHT22;1329;51.384;7.122;2023-03-01T10:34:52;3.60;99.90
2639;DHT22;1329;51.384;7.122;2023-03-01T10:37:27;3.70;99.90
2639;DHT22;1329;51.384;7.122;2023-03-01T10:39:58;3.70;99.90
2639;DHT22;1329;51.384;7.122;2023-03-01T10:42:33;3.80;99.90
2639;DHT22;1329;51.384;7.122;2023-03-01T10:45:31;3.80;99.90
2639;DHT22;1329;51.384;7.122;2023-03-01T10:48:10;3.90;85.30
2639;DHT22;1329;51.384;7.122;2023-03-01T10:50:41;4.00;99.90
2639;DHT22;1329;51.384;7.122;2023-03-01T10:53:29;4.10;99.90
2639;DHT22;1329;51.384;7.122;2023-03-01T10:56:01;4.10;98.20
2639;DHT22;1329;51.384;7.122;2023-03-01T10:58:38;4.10;99.90
2639;DHT22;1329;51.384;7.122;2023-03-01T11:01:35;4.20;99.90
2639;DHT22;1329;51.384;7.122;2023-03-01T11:04:13;4.30;99.30
2639;DHT22;1329;51.384;7.122;2023-03-01T11:06:59;4.30;99.90
2639;DHT22;1329;51.384;7.122;2023-03-01T11:09:32;4.40;99.40
2639;DHT22;1329;51.384;7.122;2023-03-01T11:12:08;4.40;99.90
2639;DHT22;1329;51.384;7.122;2023-03-01T11:14:47;4.50;99.90
2639;DHT22;1329;51.384;7.122;2023-03-01T11:17:21;4.50;99.90
2639;DHT22;1329;51.384;7.122;2023-03-01T11:20:02;4.60;99.90
2639;DHT22;1329;51.384;7.122;2023-03-01T11:22:37;4.60;97.30
2639;DHT22;1329;51.384;7.122;2023-03-01T11:25:13;4.60;99.90
2639;DHT22;1329;51.384;7.122;2023-03-01T11:27:44;4.60;99.90
2639;DHT22;1329;51.384;7.122;2023-03-01T11:30:20;4.70;99.90
2639;DHT22;1329;51.384;7.122;2023-03-01T11:33:13;4.70;99.90
2639;DHT22;1329;51.384;7.122;2023-03-01T11:35:48;4.80;96.40
2639;DHT22;1329;51.384;7.122;2023-03-01T11:38:23;4.80;99.90
2639;DHT22;1329;51.384;7.122;2023-03-01T11:41:00;4.80;99.90
2639;DHT22;1329;51.384;7.122;2023-03-01T11:43:47;4.90;99.90
2639;DHT22;1329;51.384;7.122;2023-03-01T11:46:40;4.90;99.90
2639;DHT22;1329;51.384;7.122;2023-03-01T11:49:39;5.00;91.70
2639;DHT22;1329;51.384;7.122;2023-03-01T11:52:21;5.00;92.00
2639;DHT22;1329;51.384;7.122;2023-03-01T11:55:11;5.00;96.90
2639;DHT22;1329;51.384;7.122;2023-03-01T11:58:07;5.10;99.90
2639;DHT22;1329;51.384;7.122;2023-03-01T12:01:03;5.10;99.90
2639;DHT22;1329;51.384;7.122;2023-03-01T12:03:55;5.20;98.50
2639;DHT22;1329;51.384;7.122;2023-03-01T12:06:52;5.20;99.90
2639;DHT22;1329;51.384;7.122;2023-03-01T12:09:36;5.30;95.30
2639;DHT22;1329;51.384;7.122;2023-03-01T12:12:32;5.30;97.30
2639;DHT22;1329;51.384;7.122;2023-03-01T12:18:22;5.40;99.90
2639;DHT22;1329;51.384;7.122;2023-03-01T12:21:06;5.40;99.80
2639;DHT22;1329;51.384;7.122;2023-03-01T12:27:33;5.50;93.10
2639;DHT22;1329;51.384;7.122;2023-03-01T12:30:30;5.60;93.40
2639;DHT22;1329;51.384;7.122;2023-03-01T12:33:25;5.70;99.90
2639;DHT22;1329;51.384;7.122;2023-03-01T12:36:28;5.60;99.90
2639;DHT22;1329;51.384;7.122;2023-03-01T12:39:19;5.70;96.90
2639;DHT22;1329;51.384;7.122;2023-03-01T12:42:04;5.70;98.50
2639;DHT22;1329;51.384;7.122;2023-03-01T12:44:59;5.70;88.60
2639;DHT22;1329;51.384;7.122;2023-03-01T12:48:05;5.80;82.80
2639;DHT22;1329;51.384;7.122;2023-03-01T12:50:42;5.90;91.50
2639;DHT22;1329;51.384;7.122;2023-03-01T12:53:22;5.90;99.90
2639;DHT22;1329;51.384;7.122;2023-03-01T12:55:52;6.00;99.40
2639;DHT22;1329;51.384;7.122;2023-03-01T12:58:27;6.00;99.90
2639;DHT22;1329;51.384;7.122;2023-03-01T13:01:08;6.10;99.90
2639;DHT22;1329;51.384;7.122;2023-03-01T13:04:06;6.10;99.90
2639;DHT22;1329;51.384;7.122;2023-03-01T13:07:02;6.20;99.90
2639;DHT22;1329;51.384;7.122;2023-03-01T13:09:43;6.20;99.90
2639;DHT22;1329;51.384;7.122;2023-03-01T13:12:41;6.30;99.90
2639;DHT22;1329;51.384;7.122;2023-03-01T13:15:28;6.30;83.10
2639;DHT22;1329;51.384;7.122;2023-03-01T13:18:26;6.40;68.90
2639;DHT22;1329;51.384;7.122;2023-03-01T13:21:04;6.40;99.20
2639;DHT22;1329;51.384;7.122;2023-03-01T13:23:37;6.40;99.90
2639;DHT22;1329;51.384;7.122;2023-03-01T13:26:28;6.50;99.90
2639;DHT22;1329;51.384;7.122;2023-03-01T13:28:57;6.50;93.30
2639;DHT22;1329;51.384;7.122;2023-03-01T13:32:00;6.60;99.90
2639;DHT22;1329;51.384;7.122;2023-03-01T13:34:48;6.60;81.20
2639;DHT22;1329;51.384;7.122;2023-03-01T13:37:43;6.70;62.30
2639;DHT22;1329;51.384;7.122;2023-03-01T13:43:35;6.80;88.00
2639;DHT22;1329;51.384;7.122;2023-03-01T13:46:15;6.90;99.50
2639;DHT22;1329;51.384;7.122;2023-03-01T13:48:49;6.90;92.80
2639;DHT22;1329;51.384;7.122;2023-03-01T13:51:25;7.00;99.80
2639;DHT22;1329;51.384;7.122;2023-03-01T13:53:54;7.00;95.30
2639;DHT22;1329;51.384;7.122;2023-03-01T13:56:27;7.10;99.90
2639;DHT22;1329;51.384;7.122;2023-03-01T13:59:01;7.10;96.00
2639;DHT22;1329;51.384;7.122;2023-03-01T14:01:31;7.10;92.00
2639;DHT22;1329;51.384;7.122;2023-03-01T14:04:01;7.20;99.90
2639;DHT22;1329;51.384;7.122;2023-03-01T14:06:36;7.30;99.90
2639;DHT22;1329;51.384;7.122;2023-03-01T14:09:10;7.30;94.60
2639;DHT22;1329;51.384;7.122;2023-03-01T14:14:58;7.50;85.60
2639;DHT22;1329;51.384;7.122;2023-03-01T14:17:59;7.60;99.90
2639;DHT22;1329;51.384;7.122;2023-03-01T14:20:40;7.70;62.20
2639;DHT22;1329;51.384;7.122;2023-03-01T14:23:22;7.80;98.20
2639;DHT22;1329;51.384;7.122;2023-03-01T14:25:57;7.80;97.80
2639;DHT22;1329;51.384;7.122;2023-03-01T14:28:41;7.90;99.90
2639;DHT22;1329;51.384;7.122;2023-03-01T14:31:32;7.90;99.90
2639;DHT22;1329;51.384;7.122;2023-03-01T14:34:19;8.00;88.90
2639;DHT22;1329;51.384;7.122;2023-03-01T14:36:53;8.00;83.80
2639;DHT22;1329;51.384;7.122;2023-03-01T14:39:25;8.10;98.00
2639;DHT22;1329;51.384;7.122;2023-03-01T14:41:58;8.10;94.30
2639;DHT22;1329;51.384;7.122;2023-03-01T14:44:27;8.10;99.20
2639;DHT22;1329;51.384;7.122;2023-03-01T14:47:04;8.10;98.20
2639;DHT22;1329;51.384;7.122;2023-03-01T14:49:57;8.10;99.90
2639;DHT22;1329;51.384;7.122;2023-03-01T14:52:43;8.10;72.40
2639;DHT22;1329;51.384;7.122;2023-03-01T14:55:19;8.20;91.80
2639;DHT22;1329;51.384;7.122;2023-03-01T14:57:52;8.20;88.50
2639;DHT22;1329;51.384;7.122;2023-03-01T15:00:39;8.20;95.10
2639;DHT22;1329;51.384;7.122;2023-03-01T15:03:23;8.20;97.60
2639;DHT22;1329;51.384;7.122;2023-03-01T15:05:56;8.20;76.70
2639;DHT22;1329;51.384;7.122;2023-03-01T15:08:29;8.30;98.20
2639;DHT22;1329;51.384;7.122;2023-03-01T15:11:15;8.30;95.50
2639;DHT22;1329;51.384;7.122;2023-03-01T15:13:51;8.30;91.30
2639;DHT22;1329;51.384;7.122;2023-03-01T15:16:23;8.30;93.70
2639;DHT22;1329;51.384;7.122;2023-03-01T15:19:00;8.30;92.70
2639;DHT22;1329;51.384;7.122;2023-03-01T15:21:49;8.30;92.10
2639;DHT22;1329;51.384;7.122;2023-03-01T15:24:37;8.30;67.40
2639;DHT22;1329;51.384;7.122;2023-03-01T15:27:15;8.30;99.90
2639;DHT22;1329;51.384;7.122;2023-03-01T15:29:54;8.30;53.50
2639;DHT22;1329;51.384;7.122;2023-03-01T15:32:32;8.30;79.70
2639;DHT22;1329;51.384;7.122;2023-03-01T15:35:39;8.30;96.90
2639;DHT22;1329;51.384;7.122;2023-03-01T15:38:34;8.40;27.90
2639;DHT22;1329;51.384;7.122;2023-03-01T15:41:24;8.40;84.40
2639;DHT22;1329;51.384;7.122;2023-03-01T15:43:55;8.40;79.00
2639;DHT22;1329;51.384;7.122;2023-03-01T15:46:28;8.40;94.00
2639;DHT22;1329;51.384;7.122;2023-03-01T15:48:59;8.30;80.00
2639;DHT22;1329;51.384;7.122;2023-03-01T15:51:32;8.30;94.00
2639;DHT22;1329;51.384;7.122;2023-03-01T15:54:11;8.30;88.70
2639;DHT22;1329;51.384;7.122;2023-03-01T15:56:47;8.30;76.30
2639;DHT22;1329;51.384;7.122;2023-03-01T15:59:21;8.20;71.60
2639;DHT22;1329;51.384;7.122;2023-03-01T16:01:53;8.20;92.30
2639;DHT22;1329;51.384;7.122;2023-03-01T16:04:24;8.30;96.20
2639;DHT22;1329;51.384;7.122;2023-03-01T16:06:54;8.20;96.80
2639;DHT22;1329;51.384;7.122;2023-03-01T16:09:26;8.20;97.50
2639;DHT22;1329;51.384;7.122;2023-03-01T16:11:56;8.20;94.20
2639;DHT22;1329;51.384;7.122;2023-03-01T16:14:25;8.20;98.00
2639;DHT22;1329;51.384;7.122;2023-03-01T16:16:55;8.10;91.30
2639;DHT22;1329;51.384;7.122;2023-03-01T16:19:23;8.10;82.30
2639;DHT22;1329;51.384;7.122;2023-03-01T16:22:00;8.10;95.00
2639;DHT22;1329;51.384;7.122;2023-03-01T16:24:46;8.10;93.70
2639;DHT22;1329;51.384;7.122;2023-03-01T16:27:14;8.10;75.10
2639;DHT22;1329;51.384;7.122;2023-03-01T16:29:43;8.00;93.30
2639;DHT22;1329;51.384;7.122;2023-03-01T16:32:15;8.00;78.10
2639;DHT22;1329;51.384;7.122;2023-03-01T16:34:42;7.90;91.80
2639;DHT22;1329;51.384;7.122;2023-03-01T16:37:10;7.90;91.50
2639;DHT22;1329;51.384;7.122;2023-03-01T16:39:41;7.80;91.90
2639;DHT22;1329;51.384;7.122;2023-03-01T16:42:09;7.80;69.10
2639;DHT22;1329;51.384;7.122;2023-03-01T16:44:37;7.70;90.90
2639;DHT22;1329;51.384;7.122;2023-03-01T16:47:07;7.60;91.00
2639;DHT22;1329;51.384;7.122;2023-03-01T16:49:51;7.60;73.40
2639;DHT22;1329;51.384;7.122;2023-03-01T16:52:20;7.50;72.20
2639;DHT22;1329;51.384;7.122;2023-03-01T16:54:49;7.40;90.10
2639;DHT22;1329;51.384;7.122;2023-03-01T16:57:18;7.30;90.10
2639;DHT22;1329;51.384;7.122;2023-03-01T16:59:46;7.20;91.10
2639;DHT22;1329;51.384;7.122;2023-03-01T17:02:18;7.10;80.70
2639;DHT22;1329;51.384;7.122;2023-03-01T17:04:52;7.10;75.50
2639;DHT22;1329;51.384;7.122;2023-03-01T17:07:22;7.00;66.90
2639;DHT22;1329;51.384;7.122;2023-03-01T17:09:50;6.90;82.00
2639;DHT22;1329;51.384;7.122;2023-03-01T17:12:22;6.80;85.20